createdAt,value
2023-12-22T00:01:38.983Z,91.43
2023-12-22T00:04:14.698Z,91.47
2023-12-22T00:07:02.695Z,91.41
2023-12-22T00:10:14.304Z,91.41
2023-12-22T00:13:13.213Z,91.44
2023-12-22T00:16:19.746Z,91.33
2023-12-22T00:19:44.194Z,91.48
2023-12-22T00:22:52.812Z,91.46
2023-12-22T00:26:03.303Z,91.49
2023-12-22T00:29:05.717Z,91.44
2023-12-22T00:32:13.246Z,91.57
2023-12-22T00:35:25.345Z,91.36
2023-12-22T00:38:32.187Z,91.46
2023-12-22T00:41:29.923Z,91.77
2023-12-22T00:44:31.267Z,91.51
2023-12-22T00:47:28.043Z,91.49
2023-12-22T00:50:14.716Z,91.55
2023-12-22T00:53:29.575Z,91.62
2023-12-22T00:56:52.978Z,91.63
2023-12-22T00:59:46.604Z,91.53
2023-12-22T01:02:52.924Z,91.54
2023-12-22T01:05:50.698Z,91.60
2023-12-22T01:08:42.793Z,91.25
2023-12-22T01:11:53.832Z,91.51
2023-12-22T01:15:08.034Z,91.36
2023-12-22T01:18:35.675Z,91.52
2023-12-22T01:21:59.784Z,91.39
2023-12-22T01:25:04.308Z,91.40
2023-12-22T01:27:49.531Z,91.43
2023-12-22T01:30:49.730Z,91.43
2023-12-22T01:33:41.382Z,91.45
2023-12-22T01:36:23.633Z,91.45
2023-12-22T01:39:44.618Z,91.46
2023-12-22T01:42:36.656Z,91.31
2023-12-22T01:45:47.295Z,91.31
2023-12-22T01:49:20.072Z,91.19
2023-12-22T01:52:21.618Z,91.19
2023-12-22T01:55:31.622Z,91.19
2023-12-22T01:58:45.556Z,91.03
2023-12-22T02:01:38.249Z,90.95
2023-12-22T02:04:38.935Z,90.95
2023-12-22T02:07:41.795Z,90.97
2023-12-22T02:10:37.026Z,90.83
2023-12-22T02:14:07.358Z,91.01
2023-12-22T02:18:00.480Z,90.94
2023-12-22T02:21:06.475Z,90.90
2023-12-22T02:24:01.483Z,90.90
2023-12-22T02:26:49.754Z,90.94
2023-12-22T02:29:46.562Z,90.95
2023-12-22T02:32:41.053Z,90.92
2023-12-22T02:35:39.684Z,91.01
2023-12-22T02:38:40.692Z,90.89
2023-12-22T02:41:30.142Z,91.01
2023-12-22T02:44:23.128Z,91.30
2023-12-22T02:47:31.722Z,91.42
2023-12-22T02:50:32.815Z,91.50
2023-12-22T02:53:30.189Z,91.65
2023-12-22T02:56:26.500Z,91.68
2023-12-22T02:59:27.133Z,91.69
2023-12-22T03:02:24.024Z,91.65
2023-12-22T03:05:41.083Z,91.65
2023-12-22T03:08:32.204Z,91.69
2023-12-22T03:11:52.270Z,91.66
2023-12-22T03:15:04.015Z,91.60
2023-12-22T03:18:20.812Z,91.47
2023-12-22T03:21:23.584Z,91.41
2023-12-22T03:24:29.661Z,91.35
2023-12-22T03:27:18.836Z,91.51
2023-12-22T03:30:25.035Z,91.55
2023-12-22T03:33:27.406Z,91.61
2023-12-22T03:36:37.865Z,91.69
2023-12-22T03:39:33.769Z,91.63
2023-12-22T03:42:38.926Z,91.66
2023-12-22T03:45:29.545Z,91.57
2023-12-22T03:48:13.875Z,91.48
2023-12-22T03:51:11.853Z,91.31
2023-12-22T03:54:30.720Z,91.28
2023-12-22T03:57:44.284Z,91.27
2023-12-22T04:00:36.439Z,91.26
2023-12-22T04:03:33.287Z,91.25
2023-12-22T04:06:37.784Z,91.38
2023-12-22T04:09:26.497Z,91.39
2023-12-22T04:12:38.170Z,91.15
2023-12-22T04:15:37.339Z,91.22
2023-12-22T04:18:46.927Z,91.45
2023-12-22T04:21:33.120Z,91.39
2023-12-22T04:24:24.762Z,91.54
2023-12-22T04:27:27.445Z,91.46
2023-12-22T04:30:52.740Z,91.54
2023-12-22T04:33:52.560Z,91.61
2023-12-22T04:36:55.432Z,91.73
2023-12-22T04:39:59.225Z,91.77
2023-12-22T04:43:07.401Z,91.72
2023-12-22T04:46:10.457Z,91.83
2023-12-22T04:49:02.697Z,91.96
2023-12-22T04:52:42.098Z,91.75
2023-12-22T04:55:53.864Z,91.79
2023-12-22T04:58:45.477Z,91.68
2023-12-22T05:01:51.904Z,91.61
2023-12-22T05:05:02.734Z,91.67
2023-12-22T05:07:53.026Z,91.48
2023-12-22T05:11:13.501Z,91.46
2023-12-22T05:14:12.625Z,91.50
2023-12-22T05:16:58.000Z,91.45
2023-12-22T05:19:49.923Z,91.64
2023-12-22T05:22:43.864Z,91.67
2023-12-22T05:25:35.237Z,91.76
2023-12-22T05:28:50.795Z,91.66
2023-12-22T05:32:15.891Z,91.61
2023-12-22T05:35:21.724Z,91.52
2023-12-22T05:38:32.005Z,91.39
2023-12-22T05:41:50.787Z,91.43
2023-12-22T05:44:25.394Z,91.32
2023-12-22T05:47:16.520Z,91.42
2023-12-22T05:50:12.378Z,91.37
2023-12-22T05:53:16.475Z,91.53
2023-12-22T05:56:23.447Z,91.47
2023-12-22T05:59:47.142Z,91.59
2023-12-22T06:02:48.829Z,91.48
2023-12-22T06:05:51.037Z,91.48
2023-12-22T06:08:53.043Z,91.58
2023-12-22T06:12:39.901Z,91.58
2023-12-22T06:16:27.973Z,91.42
2023-12-22T06:19:29.709Z,91.65
2023-12-22T06:22:30.961Z,91.63
2023-12-22T06:25:21.394Z,91.51
2023-12-22T06:28:48.192Z,91.50
2023-12-22T06:32:07.451Z,91.53
2023-12-22T06:35:05.413Z,91.62
2023-12-22T06:38:11.638Z,91.56
2023-12-22T06:41:08.007Z,91.49
2023-12-22T06:44:12.212Z,91.55
2023-12-22T06:47:23.100Z,91.43
2023-12-22T06:50:41.230Z,91.37
2023-12-22T06:53:55.473Z,91.33
2023-12-22T06:57:14.681Z,91.32
2023-12-22T07:00:05.078Z,91.33
2023-12-22T07:03:10.480Z,91.28
2023-12-22T07:06:18.432Z,91.26
2023-12-22T07:10:22.465Z,91.03
2023-12-22T07:13:31.873Z,90.98
2023-12-22T07:16:46.647Z,91.06
2023-12-22T07:19:56.346Z,91.30
2023-12-22T07:22:46.554Z,91.08
2023-12-22T07:25:52.000Z,91.19
2023-12-22T07:28:59.351Z,91.28
2023-12-22T07:32:04.979Z,91.30
2023-12-22T07:35:38.225Z,90.66
2023-12-22T07:38:37.069Z,90.82
2023-12-22T07:41:38.847Z,91.62
2023-12-22T07:44:54.380Z,91.10
2023-12-22T07:47:54.624Z,90.15
2023-12-22T07:51:06.148Z,89.83
2023-12-22T07:54:07.876Z,90.06
2023-12-22T07:57:15.003Z,89.92
2023-12-22T08:00:09.617Z,89.34
2023-12-22T08:03:19.939Z,89.32
2023-12-22T08:06:29.963Z,89.08
2023-12-22T08:09:28.058Z,89.35
2023-12-22T08:12:38.669Z,89.18
2023-12-22T08:15:46.377Z,88.73
2023-12-22T08:18:54.213Z,88.72
2023-12-22T08:22:08.526Z,88.90
2023-12-22T08:25:21.750Z,88.82
2023-12-22T08:28:31.481Z,88.66
2023-12-22T08:31:35.252Z,88.61
2023-12-22T08:34:34.250Z,88.58
2023-12-22T08:37:51.323Z,88.25
2023-12-22T08:41:15.987Z,88.08
2023-12-22T08:44:19.836Z,88.02
2023-12-22T08:47:54.498Z,87.74
2023-12-22T08:51:28.597Z,87.54
2023-12-22T08:54:39.942Z,87.54
2023-12-22T08:57:53.835Z,87.66
2023-12-22T09:01:14.113Z,87.30
2023-12-22T09:04:09.848Z,87.34
2023-12-22T09:07:24.413Z,87.17
2023-12-22T09:10:38.501Z,86.94
2023-12-22T09:13:26.272Z,86.89
2023-12-22T09:16:17.168Z,86.98
2023-12-22T09:19:23.135Z,86.72
2023-12-22T09:22:13.541Z,86.63
2023-12-22T09:25:19.631Z,86.65
2023-12-22T09:28:08.235Z,86.56
2023-12-22T09:31:36.681Z,86.45
2023-12-22T09:35:07.683Z,86.53
2023-12-22T09:38:14.803Z,86.54
2023-12-22T09:41:25.715Z,86.67
2023-12-22T09:44:17.080Z,86.57
2023-12-22T09:47:39.118Z,86.36
2023-12-22T09:51:03.486Z,86.20
2023-12-22T09:54:26.561Z,85.87
2023-12-22T09:57:48.271Z,86.08
2023-12-22T10:00:54.577Z,85.79
2023-12-22T10:04:30.698Z,85.58
2023-12-22T10:07:57.697Z,85.06
2023-12-22T10:11:18.913Z,85.11
2023-12-22T10:14:40.644Z,84.69
2023-12-22T10:17:44.033Z,84.79
2023-12-22T10:20:41.835Z,84.49
2023-12-22T10:23:41.327Z,84.45
2023-12-22T10:26:59.921Z,84.22
2023-12-22T10:30:19.951Z,84.39
2023-12-22T10:33:33.532Z,84.40
2023-12-22T10:36:41.313Z,84.28
2023-12-22T10:39:47.386Z,84.28
2023-12-22T10:42:42.249Z,84.38
2023-12-22T10:46:06.176Z,84.32
2023-12-22T10:52:54.973Z,84.12
2023-12-22T10:55:53.626Z,84.14
2023-12-22T10:58:48.583Z,84.10
2023-12-22T11:01:45.864Z,84.02
2023-12-22T11:04:45.937Z,84.04
2023-12-22T11:07:47.657Z,83.91
2023-12-22T11:10:31.861Z,83.74
2023-12-22T11:13:41.517Z,83.84
2023-12-22T11:16:53.752Z,83.71
2023-12-22T11:19:41.370Z,83.50
2023-12-22T11:22:48.918Z,83.58
2023-12-22T11:25:54.469Z,83.26
2023-12-22T11:29:19.326Z,83.03
2023-12-22T11:32:05.627Z,82.95
2023-12-22T11:35:09.120Z,83.00
2023-12-22T11:38:01.165Z,82.69
2023-12-22T11:40:53.500Z,82.55
2023-12-22T11:43:54.054Z,82.77
2023-12-22T11:46:44.307Z,82.50
2023-12-22T11:49:14.663Z,82.50
2023-12-22T11:52:33.308Z,82.72
2023-12-22T11:55:21.415Z,82.50
2023-12-22T11:59:17.015Z,82.52
2023-12-22T12:02:14.106Z,82.52
2023-12-22T12:05:24.061Z,82.38
2023-12-22T12:08:24.680Z,82.27
2023-12-22T12:11:02.324Z,82.47
2023-12-22T12:14:06.248Z,82.29
2023-12-22T12:17:00.163Z,82.13
2023-12-22T12:20:15.327Z,82.24
2023-12-22T12:23:27.550Z,82.17
2023-12-22T12:26:23.629Z,82.05
2023-12-22T12:29:28.594Z,82.02
2023-12-22T12:32:28.073Z,81.95
2023-12-22T12:35:28.668Z,81.90
2023-12-22T12:39:04.611Z,81.79
2023-12-22T12:42:26.455Z,81.79
2023-12-22T12:45:20.931Z,81.68
2023-12-22T12:48:10.590Z,81.66
2023-12-22T12:50:52.574Z,81.65
2023-12-22T12:53:32.930Z,81.55
2023-12-22T12:56:27.141Z,81.41
2023-12-22T12:59:28.922Z,81.36
2023-12-22T13:02:34.048Z,81.40
2023-12-22T13:05:55.072Z,81.24
2023-12-22T13:08:39.168Z,81.18
2023-12-22T13:11:30.829Z,81.22
2023-12-22T13:14:43.607Z,81.17
2023-12-22T13:17:26.550Z,81.02
2023-12-22T13:20:14.416Z,81.07
2023-12-22T13:23:10.727Z,80.97
2023-12-22T13:26:18.027Z,81.04
2023-12-22T13:29:22.926Z,80.84
2023-12-22T13:32:51.654Z,80.73
2023-12-22T13:36:13.969Z,80.64
2023-12-22T13:39:37.430Z,80.42
2023-12-22T13:42:38.584Z,80.49
2023-12-22T13:45:50.107Z,80.52
2023-12-22T13:49:12.021Z,80.37
2023-12-22T13:52:47.013Z,80.38
2023-12-22T13:55:41.211Z,80.31
2023-12-22T13:58:24.465Z,80.43
2023-12-22T14:01:16.128Z,80.40
2023-12-22T14:04:29.113Z,80.39
2023-12-22T14:07:04.007Z,80.39
2023-12-22T14:09:39.340Z,80.45
2023-12-22T14:12:12.056Z,80.35
2023-12-22T14:14:41.730Z,80.39
2023-12-22T14:17:24.675Z,80.39
2023-12-22T14:20:20.638Z,80.39
2023-12-22T14:23:14.635Z,80.43
2023-12-22T14:26:38.352Z,80.36
2023-12-22T14:29:43.984Z,80.28
2023-12-22T14:32:31.164Z,80.33
2023-12-22T14:36:06.594Z,80.41
2023-12-22T14:38:55.316Z,80.53
2023-12-22T14:41:47.788Z,80.49
2023-12-22T14:44:42.693Z,80.55
2023-12-22T14:47:28.350Z,80.67
2023-12-22T14:50:05.306Z,80.69
2023-12-22T14:53:11.760Z,80.87
2023-12-22T14:56:05.464Z,80.90
2023-12-22T14:59:08.628Z,81.20
2023-12-22T15:02:06.886Z,81.24
2023-12-22T15:04:52.621Z,81.04
2023-12-22T15:07:56.297Z,81.21
2023-12-22T15:11:11.574Z,80.97
2023-12-22T15:14:03.314Z,81.22
2023-12-22T15:21:31.594Z,81.04
2023-12-22T15:24:51.649Z,81.02
2023-12-22T15:27:57.115Z,81.20
2023-12-22T15:31:13.734Z,81.25
2023-12-22T15:33:56.751Z,81.32
2023-12-22T15:36:48.382Z,81.31
2023-12-22T15:39:49.915Z,81.60
2023-12-22T15:42:54.930Z,81.59
2023-12-22T15:46:07.644Z,81.84
2023-12-22T15:49:09.071Z,81.88
2023-12-22T15:52:03.560Z,81.88
2023-12-22T15:55:02.241Z,81.91
2023-12-22T15:58:02.452Z,81.96
2023-12-22T16:00:57.015Z,82.06
2023-12-22T16:03:51.429Z,82.11
2023-12-22T16:06:56.482Z,82.37
2023-12-22T16:10:11.679Z,82.50
2023-12-22T16:13:14.913Z,82.76
2023-12-22T16:16:18.009Z,83.13
2023-12-22T16:19:17.614Z,83.19
2023-12-22T16:22:26.084Z,83.04
2023-12-22T16:25:37.925Z,83.39
2023-12-22T16:32:26.892Z,83.76
2023-12-22T16:35:27.216Z,83.91
2023-12-22T16:38:16.333Z,83.65
2023-12-22T16:41:22.568Z,84.14
2023-12-22T16:44:14.691Z,84.41
2023-12-22T16:47:31.190Z,84.47
2023-12-22T16:50:28.057Z,84.62
2023-12-22T16:53:11.794Z,84.72
2023-12-22T16:56:03.106Z,84.75
2023-12-22T16:58:51.129Z,84.71
2023-12-22T17:01:56.356Z,84.92
2023-12-22T17:05:15.770Z,85.07
2023-12-22T17:08:06.241Z,85.56
2023-12-22T17:10:57.534Z,85.53
2023-12-22T17:14:08.273Z,85.45
2023-12-22T17:17:16.334Z,85.61
2023-12-22T17:20:07.527Z,85.79
2023-12-22T17:23:04.297Z,85.93
2023-12-22T17:25:56.850Z,85.96
2023-12-22T17:28:40.815Z,86.16
2023-12-22T17:31:33.104Z,86.26
2023-12-22T17:34:00.596Z,86.04
2023-12-22T17:36:41.077Z,86.09
2023-12-22T17:39:19.565Z,86.34
2023-12-22T17:42:13.216Z,86.39
2023-12-22T17:45:09.534Z,86.42
2023-12-22T17:48:17.310Z,86.25
2023-12-22T17:50:51.060Z,86.60
2023-12-22T17:53:52.087Z,86.67
2023-12-22T17:56:54.087Z,86.83
2023-12-22T18:00:32.124Z,86.82
2023-12-22T18:03:53.304Z,86.99
2023-12-22T18:06:56.026Z,86.82
2023-12-22T18:10:05.167Z,86.81
2023-12-22T18:13:26.125Z,86.98
2023-12-22T18:16:25.713Z,86.92
2023-12-22T18:19:56.682Z,87.29
2023-12-22T18:22:54.434Z,87.31
2023-12-22T18:25:48.590Z,87.14
2023-12-22T18:28:48.715Z,87.25
2023-12-22T18:31:57.292Z,86.99
2023-12-22T18:35:05.173Z,87.25
2023-12-22T18:38:06.885Z,87.32
2023-12-22T18:41:12.088Z,87.32
2023-12-22T18:44:04.190Z,87.19
2023-12-22T18:47:41.769Z,87.52
2023-12-22T18:51:03.436Z,87.58
2023-12-22T18:53:59.714Z,87.40
2023-12-22T18:56:46.828Z,87.55
2023-12-22T18:59:51.229Z,87.57
2023-12-22T19:02:55.895Z,87.46
2023-12-22T19:05:51.803Z,87.65
2023-12-22T19:09:06.880Z,87.65
2023-12-22T19:12:38.153Z,87.64
2023-12-22T19:15:51.221Z,87.80
2023-12-22T19:18:48.936Z,87.69
2023-12-22T19:21:40.982Z,87.69
2023-12-22T19:24:48.059Z,87.71
2023-12-22T19:27:38.819Z,87.86
2023-12-22T19:30:31.726Z,87.69
2023-12-22T19:33:43.238Z,87.87
2023-12-22T19:36:20.994Z,87.89
2023-12-22T19:39:24.499Z,87.86
2023-12-22T19:42:10.052Z,87.79
2023-12-22T19:45:16.649Z,87.93
2023-12-22T19:48:08.188Z,87.92
2023-12-22T19:51:12.676Z,87.90
2023-12-22T19:54:07.200Z,87.77
2023-12-22T19:56:56.058Z,87.87
2023-12-22T19:59:51.978Z,87.80
2023-12-22T20:02:40.114Z,87.78
2023-12-22T20:05:27.404Z,87.67
2023-12-22T20:08:19.777Z,87.86
2023-12-22T20:11:27.799Z,87.84
2023-12-22T20:14:35.058Z,87.98
2023-12-22T20:17:35.542Z,87.93
2023-12-22T20:20:27.730Z,87.89
2023-12-22T20:23:33.432Z,87.76
2023-12-22T20:26:55.597Z,87.99
2023-12-22T20:30:32.087Z,87.83
2023-12-22T20:37:41.972Z,87.95
2023-12-22T20:40:58.119Z,88.04
2023-12-22T20:44:24.862Z,87.88
2023-12-22T20:47:27.118Z,87.82
2023-12-22T20:50:38.051Z,87.88
2023-12-22T20:53:30.092Z,87.86
2023-12-22T20:56:24.560Z,87.81
2023-12-22T20:59:10.942Z,87.84
2023-12-22T21:02:21.647Z,88.05
2023-12-22T21:05:21.274Z,88.22
2023-12-22T21:08:16.863Z,87.96
2023-12-22T21:11:20.410Z,88.12
2023-12-22T21:14:50.968Z,88.03
2023-12-22T21:18:28.383Z,88.34
2023-12-22T21:22:05.470Z,88.12
2023-12-22T21:25:23.754Z,88.09
2023-12-22T21:28:42.107Z,88.30
2023-12-22T21:31:35.085Z,88.03
2023-12-22T21:34:26.723Z,88.22
2023-12-22T21:37:44.522Z,88.32
2023-12-22T21:41:02.306Z,88.44
2023-12-22T21:44:09.624Z,88.22
2023-12-22T21:47:00.835Z,88.15
2023-12-22T21:49:43.382Z,88.15
2023-12-22T21:53:06.886Z,88.33
2023-12-22T21:56:16.740Z,88.41
2023-12-22T21:59:11.425Z,88.20
2023-12-22T22:02:19.398Z,88.43
2023-12-22T22:05:23.372Z,88.39
2023-12-22T22:08:18.925Z,88.38
2023-12-22T22:11:21.695Z,88.31
2023-12-22T22:14:25.799Z,88.44
2023-12-22T22:17:42.028Z,88.48
2023-12-22T22:24:40.199Z,88.48
2023-12-22T22:27:35.572Z,88.45
2023-12-22T22:30:25.412Z,88.46
2023-12-22T22:34:03.974Z,88.58
2023-12-22T22:37:08.247Z,88.48
2023-12-22T22:40:21.089Z,88.65
2023-12-22T22:43:13.010Z,88.62
2023-12-22T22:46:00.735Z,88.62
2023-12-22T22:48:52.875Z,88.70
2023-12-22T22:52:04.046Z,88.79
2023-12-22T22:55:10.033Z,88.58
2023-12-22T22:58:02.188Z,88.67
2023-12-22T23:00:55.274Z,88.70
2023-12-22T23:04:02.481Z,88.71
2023-12-22T23:06:48.903Z,88.76
2023-12-22T23:09:46.235Z,88.67
2023-12-22T23:12:57.043Z,88.70
2023-12-22T23:16:13.836Z,88.63
2023-12-22T23:19:14.206Z,88.58
2023-12-22T23:22:20.220Z,88.70
2023-12-22T23:24:56.370Z,88.77
2023-12-22T23:27:40.534Z,88.64
2023-12-22T23:30:34.758Z,88.66
2023-12-22T23:33:29.340Z,88.94
2023-12-22T23:36:22.333Z,88.69
2023-12-22T23:39:28.076Z,88.67
2023-12-22T23:42:16.806Z,88.74
2023-12-22T23:45:04.605Z,88.69
2023-12-22T23:48:02.701Z,88.72
2023-12-22T23:50:36.310Z,89.00
2023-12-22T23:53:26.837Z,88.60
2023-12-22T23:56:14.306Z,88.79
2023-12-22T23:58:56.340Z,88.80
